createdAt,value
2022-09-11T00:02:29.599Z,69.46
2022-09-11T00:05:42.622Z,69.19
2022-09-11T00:09:01.822Z,69.24
2022-09-11T00:12:07.349Z,67.98
2022-09-11T00:15:12.544Z,67.45
2022-09-11T00:18:22.620Z,66.88
2022-09-11T00:21:28.580Z,67.07
2022-09-11T00:24:33.627Z,66.67
2022-09-11T00:27:38.369Z,66.93
2022-09-11T00:30:45.911Z,66.68
2022-09-11T00:33:52.682Z,66.35
2022-09-11T00:36:58.969Z,65.13
2022-09-11T00:40:04.426Z,65.19
2022-09-11T00:43:11.792Z,64.81
2022-09-11T00:46:17.105Z,63.51
2022-09-11T00:49:31.497Z,62.56
2022-09-11T00:52:42.081Z,59.61
2022-09-11T00:55:53.317Z,57.56
2022-09-11T00:58:59.841Z,54.81
2022-09-11T01:02:04.838Z,54.32
2022-09-11T01:05:11.287Z,53.94
2022-09-11T01:08:16.163Z,51.47
2022-09-11T01:11:41.413Z,49.91
2022-09-11T01:14:58.034Z,48.16
2022-09-11T01:18:30.374Z,47.21
2022-09-11T01:22:03.258Z,46.48
2022-09-11T01:25:25.106Z,45.92
2022-09-11T01:28:40.939Z,46.29
2022-09-11T01:32:25.848Z,47.85
2022-09-11T01:35:48.678Z,48.59
2022-09-11T01:38:58.479Z,46.01
2022-09-11T01:42:15.703Z,46.40
2022-09-11T01:45:23.062Z,46.20
2022-09-11T01:48:34.869Z,46.87
2022-09-11T01:51:42.226Z,46.72
2022-09-11T01:55:00.657Z,45.60
2022-09-11T01:58:21.247Z,46.01
2022-09-11T02:01:32.142Z,46.48
2022-09-11T02:05:02.899Z,47.20
2022-09-11T02:08:20.056Z,48.86
2022-09-11T02:11:26.420Z,50.29
2022-09-11T02:14:51.831Z,50.87
2022-09-11T02:18:12.630Z,51.86
2022-09-11T02:21:17.149Z,52.16
2022-09-11T02:24:26.441Z,51.85
2022-09-11T02:27:34.697Z,51.96
2022-09-11T02:30:43.908Z,51.88
2022-09-11T02:33:50.539Z,50.88
2022-09-11T02:37:04.224Z,51.48
2022-09-11T02:40:28.036Z,52.13
2022-09-11T02:43:56.954Z,51.98
2022-09-11T02:47:24.995Z,52.44
2022-09-11T02:50:50.412Z,53.25
2022-09-11T02:54:33.258Z,52.34
2022-09-11T02:57:46.835Z,53.01
2022-09-11T03:00:52.022Z,54.23
2022-09-11T03:03:56.553Z,54.48
2022-09-11T03:07:01.278Z,53.83
2022-09-11T03:10:09.382Z,53.39
2022-09-11T03:13:15.793Z,54.12
2022-09-11T03:16:22.386Z,53.87
2022-09-11T03:19:28.455Z,54.34
2022-09-11T03:22:33.374Z,54.08
2022-09-11T03:25:38.236Z,54.95
2022-09-11T03:28:44.692Z,55.47
2022-09-11T03:31:53.771Z,55.44
2022-09-11T03:34:58.855Z,55.64
2022-09-11T03:38:03.421Z,56.83
2022-09-11T03:41:10.138Z,55.98
2022-09-11T03:44:15.295Z,55.27
2022-09-11T03:47:21.420Z,56.18
2022-09-11T03:50:26.308Z,55.83
2022-09-11T03:53:33.365Z,55.86
2022-09-11T03:56:38.354Z,56.03
2022-09-11T03:59:43.746Z,56.37
2022-09-11T04:02:48.971Z,56.78
2022-09-11T04:06:07.567Z,56.86
2022-09-11T04:09:14.005Z,57.06
2022-09-11T04:12:19.437Z,57.09
2022-09-11T04:15:24.416Z,56.96
2022-09-11T04:18:29.364Z,57.39
2022-09-11T04:21:35.755Z,57.15
2022-09-11T04:24:41.154Z,57.40
2022-09-11T04:27:46.409Z,57.41
2022-09-11T04:30:53.489Z,56.81
2022-09-11T04:33:58.940Z,57.19
2022-09-11T04:37:08.733Z,56.95
2022-09-11T04:40:14.373Z,57.30
2022-09-11T04:43:21.253Z,56.82
2022-09-11T04:46:26.559Z,56.65
2022-09-11T04:49:32.318Z,56.86
2022-09-11T04:52:37.320Z,56.71
2022-09-11T04:55:44.766Z,56.71
2022-09-11T04:59:01.115Z,56.42
2022-09-11T05:02:07.012Z,56.77
2022-09-11T05:05:16.108Z,57.08
2022-09-11T05:08:21.089Z,56.85
2022-09-11T05:11:26.952Z,57.14
2022-09-11T05:14:33.675Z,56.83
2022-09-11T05:17:40.417Z,57.37
2022-09-11T05:20:47.703Z,57.19
2022-09-11T05:23:54.973Z,56.53
2022-09-11T05:27:02.766Z,56.91
2022-09-11T05:30:08.627Z,56.32
2022-09-11T05:33:14.763Z,57.13
2022-09-11T05:36:20.110Z,56.74
2022-09-11T05:39:26.240Z,56.88
2022-09-11T05:42:32.209Z,57.23
2022-09-11T05:45:43.407Z,57.68
2022-09-11T05:48:49.338Z,57.90
2022-09-11T05:51:54.276Z,57.71
2022-09-11T05:54:59.281Z,57.86
2022-09-11T05:58:04.677Z,57.50
2022-09-11T06:01:13.073Z,57.37
2022-09-11T06:04:20.378Z,57.61
2022-09-11T06:07:28.735Z,57.81
2022-09-11T06:10:33.770Z,57.98
2022-09-11T06:13:44.206Z,58.65
2022-09-11T06:16:50.861Z,57.73
2022-09-11T06:19:56.970Z,57.84
2022-09-11T06:23:06.078Z,57.30
2022-09-11T06:26:18.546Z,57.67
2022-09-11T06:29:24.279Z,58.00
2022-09-11T06:32:29.120Z,58.32
2022-09-11T06:35:34.353Z,58.26
2022-09-11T06:38:39.619Z,58.63
2022-09-11T06:41:48.286Z,59.02
2022-09-11T06:44:53.232Z,59.39
2022-09-11T06:47:57.848Z,60.08
2022-09-11T06:51:05.552Z,59.78
2022-09-11T06:54:12.439Z,59.46
2022-09-11T06:57:17.596Z,59.08
2022-09-11T07:00:22.259Z,58.80
2022-09-11T07:03:27.488Z,58.54
2022-09-11T07:06:32.384Z,58.02
2022-09-11T07:09:42.289Z,58.01
2022-09-11T07:12:49.235Z,58.15
2022-09-11T07:16:01.187Z,58.39
2022-09-11T07:19:06.663Z,58.75
2022-09-11T07:23:03.336Z,59.14
2022-09-11T07:26:12.128Z,58.96
2022-09-11T07:29:17.589Z,59.23
2022-09-11T07:32:23.889Z,59.86
2022-09-11T07:35:31.008Z,60.12
2022-09-11T07:38:43.943Z,60.84
2022-09-11T07:41:54.248Z,61.06
2022-09-11T07:45:12.367Z,61.61
2022-09-11T07:48:23.869Z,62.15
2022-09-11T07:51:30.465Z,62.54
2022-09-11T07:54:40.424Z,62.27
2022-09-11T07:57:46.619Z,62.61
2022-09-11T08:01:00.307Z,63.67
2022-09-11T08:04:12.847Z,64.06
2022-09-11T08:07:18.761Z,64.18
2022-09-11T08:10:27.596Z,64.18
2022-09-11T08:13:35.579Z,64.19
2022-09-11T08:16:40.466Z,64.53
2022-09-11T08:19:46.371Z,65.31
2022-09-11T08:22:51.680Z,65.66
2022-09-11T08:25:59.923Z,65.66
2022-09-11T08:29:06.223Z,65.95
2022-09-11T08:32:11.393Z,66.56
2022-09-11T08:35:17.942Z,66.85
2022-09-11T08:38:22.927Z,66.33
2022-09-11T08:41:54.502Z,67.02
2022-09-11T08:45:02.226Z,67.19
2022-09-11T08:48:15.003Z,68.12
2022-09-11T08:51:20.984Z,68.67
2022-09-11T08:54:37.529Z,70.48
2022-09-11T08:58:14.984Z,71.20
2022-09-11T09:01:28.213Z,69.94
2022-09-11T09:05:00.283Z,71.65
2022-09-11T09:08:20.372Z,71.95
2022-09-11T09:11:46.717Z,73.55
2022-09-11T09:15:19.419Z,73.28
2022-09-11T09:18:39.204Z,72.25
2022-09-11T09:22:12.909Z,72.22
2022-09-11T09:25:24.927Z,72.51
2022-09-11T09:28:45.318Z,74.49
2022-09-11T09:31:59.333Z,73.94
2022-09-11T09:35:12.034Z,74.31
2022-09-11T09:38:27.150Z,75.74
2022-09-11T09:41:42.165Z,75.97
2022-09-11T09:45:27.436Z,75.95
2022-09-11T09:48:40.729Z,76.63
2022-09-11T09:51:48.194Z,76.37
2022-09-11T09:55:02.284Z,77.63
2022-09-11T09:58:13.280Z,78.01
2022-09-11T10:01:46.130Z,78.60
2022-09-11T10:05:09.676Z,79.03
2022-09-11T10:08:45.422Z,80.07
2022-09-11T10:12:14.883Z,80.81
2022-09-11T10:15:24.600Z,80.47
2022-09-11T10:18:39.375Z,79.43
2022-09-11T10:21:45.166Z,80.31
2022-09-11T10:25:11.699Z,81.60
2022-09-11T10:28:20.269Z,80.29
2022-09-11T10:31:31.970Z,80.27
2022-09-11T10:34:42.144Z,80.71
2022-09-11T10:37:46.910Z,80.75
2022-09-11T10:41:08.529Z,81.49
2022-09-11T10:44:17.546Z,80.76
2022-09-11T10:47:32.856Z,80.63
2022-09-11T10:50:37.894Z,80.43
2022-09-11T10:54:00.504Z,81.01
2022-09-11T10:57:26.210Z,80.98
2022-09-11T11:00:33.017Z,82.03
2022-09-11T11:03:37.797Z,82.52
2022-09-11T11:06:59.103Z,82.67
2022-09-11T11:10:33.274Z,84.36
2022-09-11T11:14:08.260Z,84.32
2022-09-11T11:17:46.796Z,83.94
2022-09-11T11:21:11.417Z,83.55
2022-09-11T11:24:25.089Z,84.59
2022-09-11T11:28:14.180Z,84.68
2022-09-11T11:31:29.268Z,84.48
2022-09-11T11:35:05.849Z,83.96
2022-09-11T11:38:32.526Z,83.49
2022-09-11T11:41:45.998Z,82.92
2022-09-11T11:45:21.849Z,84.16
2022-09-11T11:48:28.886Z,85.18
2022-09-11T11:51:49.136Z,87.45
2022-09-11T11:55:05.109Z,88.58
2022-09-11T11:58:15.560Z,89.75
2022-09-11T12:01:37.410Z,87.34
2022-09-11T12:05:11.407Z,86.43
2022-09-11T12:08:17.631Z,84.70
2022-09-11T12:11:31.386Z,85.05
2022-09-11T12:14:36.259Z,84.90
2022-09-11T12:17:44.253Z,85.23
2022-09-11T12:20:48.742Z,85.66
2022-09-11T12:24:05.389Z,86.07
2022-09-11T12:27:35.335Z,87.45
2022-09-11T13:57:25.478Z,87.05
2022-09-11T15:52:53.178Z,91.38
2022-09-11T21:41:12.253Z,89.89
2022-09-11T22:21:04.136Z,86.84
2022-09-11T22:24:09.007Z,86.37
2022-09-11T22:27:14.200Z,86.09
2022-09-11T22:30:19.361Z,86.14
2022-09-11T22:33:24.325Z,86.08
2022-09-11T22:36:31.212Z,86.81
2022-09-11T22:39:35.948Z,86.86
2022-09-11T22:42:41.093Z,86.62
2022-09-11T22:45:52.717Z,86.36
2022-09-11T22:48:57.916Z,87.40
2022-09-11T22:52:03.007Z,87.91
2022-09-11T22:55:09.077Z,87.67
2022-09-11T22:58:15.342Z,88.59
2022-09-11T23:01:22.509Z,88.87
2022-09-11T23:04:27.332Z,88.15
2022-09-11T23:07:32.362Z,87.56
2022-09-11T23:10:45.224Z,86.57
2022-09-11T23:13:51.556Z,86.26
2022-09-11T23:16:56.376Z,86.32
2022-09-11T23:20:00.860Z,86.57
2022-09-11T23:23:07.794Z,87.10
2022-09-11T23:26:15.506Z,87.22
2022-09-11T23:29:20.584Z,87.44
2022-09-11T23:32:25.368Z,87.43
2022-09-11T23:35:30.745Z,88.79
2022-09-11T23:38:35.364Z,87.69
2022-09-11T23:41:40.400Z,88.17
2022-09-11T23:44:45.386Z,87.41
2022-09-11T23:47:51.763Z,87.29
2022-09-11T23:50:59.030Z,86.67
2022-09-11T23:54:03.885Z,87.69
2022-09-11T23:57:08.577Z,87.06
